Plentywood, MT (59254)

11:57 AM MDT on August 20, 2014 (GMT -0600)
RAWS MEDICINE LAKE MT US | Change Station
CLOSE
Current Station
Personal Weather Station
Location: Medicine Lake, MT
Elevation: 1975 ft
Nearby Weather Stations

Elev 1975 ft 48.49 °N, 104.48 °W | Updated 59 minutes ago

Clear
Clear
77 °F
Feels Like 79 °F
N
3
Wind Variable Wind from SE
Gusts 12.0 mph

Today
High -- | Low -- °F
--% Chance of Precip.
Yesterday
High -- | Low -- °F
Precip. -- in
5:58 AM 8:04 PM
Waning Crescent, 20% visible
Pressure 29.68 in
Visibility 10.0 miles
Clouds Few 12000 ft
Heat Index 79 °F
Dew Point 62 °F
Humidity 59%
Rainfall 0.00 in
Snow Depth Not available.
UV 7 out of 12
Pollen 8.70 out of 12
Air Quality Not available.
Flu Activity Not available.
METAR KD50 201735Z AUTO 04004KT 10SM FEW120 22/19 A2968 RMK AO2

More Conditions Fewer Conditions

Pressure 29.68 in
Visibility 10.0 miles
Clouds Few 12000 ft
Heat Index 79 °F
Dew Point 62 °F
Humidity 59%
Rainfall 0.00 in
Snow Depth Not available.
UV 7 out of 12
Pollen 8.70 out of 12
Air Quality Not available.
Flu Activity Not available.
METAR KD50 201735Z AUTO 04004KT 10SM FEW120 22/19 A2968 RMK AO2

More Conditions Fewer Conditions

10-Day Weather Forecast

Almanac

Astronomy

Aug. 20, 2014 Rise Set
Actual Time 5:58 AM MDT 8:04 PM MDT
Civil Twilight 5:24 AM MDT 8:38 PM MDT
Nautical Twilight 4:41 AM MDT 9:20 PM MDT
Astronomical Twilight 3:53 AM MDT 10:08 PM MDT
Moon 1:31 AM MDT 5:00 PM MDT
Length of Visible Light 15h 14m
Length of Day
14h 05m
Tomorrow will be 3m 19s shorter.
Waning Crescent, 20% of the Moon is Illuminated
Today
Waning Crescent
Aug 25
New
Sep 2
First Quarter
Sep 8
Full
Sep 15
Last Quarter

Today's Extremes

State Highs State Lows

Community

WunderPhotos

Upload Photos

1,745,699 photos uploaded!

WunderBlogs® & News

By Dr. Jeff Masters
Director of Meteorology, Weather Underground
By Kari Strenfel
Meteorologist, Weather Underground
By Christopher C. Burt
Weather Historian, Weather Underground
August 20, 2014
August 20, 2014
August 20, 2014

Nearby

Snow Depth

Station Depth Elevation
Crystal Lake 0 in 6050 ft
Spur Park 0 in 8100 ft
Onion Park 0 in 7410 ft
Stringer Creek 0 in 6550 ft
Porcupine 0 in 6500 ft

Earthquake Activity

City Distance Mag. Time & Date
No recent earthquake activity has been reported nearby.
Minimum magnitude displayed is 2.5.

Coastal Water Temperatures

Place Temperature
No Stations Reporting

Nearby Weather Stations